Amsel, Algeria
Current Conditions -  °F | °C
As of 1:30 AM on Monday 22 Dec 2014 (Local Time) from DAAT Reporting Station
Clear Clear  
Wind Chill: 42°   Ceiling: Unl
Heat Index: 48°   Visibility: 6mi
Dew Point:   Wind: 17mph
Humidity: 20%   Direction: 80°E
Pressure: 30.24"   Gusts: NA
Location:  22.63°N, 5.43°E
Report Text: DAAT 220030Z 08015KT CAVOK 09/M13 Q1024
Loading
Personal Weather Stations






























Interactive Weather Map New forecast layout! Learn more

10-Day Weather Forecast

Advertisements
Track Severe Weather on mobile